Terminal Aerodrome Forecast
Issued by NWS Duluth, MN

Home | Current Version | Previous Version | Text Only | Print | Product List | Glossary On
Versions: 1 2 3 4 5 6 7 8 9 10 11 12 13 14 15 16 17 18
000
FTUS43 KDLH 302300 AAA
TAFINL
TAF AMD
KINL 302339Z 0100/0124 15008KT P6SM SCT200
     FM010900 20010KT P6SM VCSH SCT030 BKN060
     FM011200 24005KT 6SM -RA SCT020 OVC050
     FM011800 29005KT P6SM SCT100=

USA.gov is the U.S. government's official web portal to all federal, state and local government web resources and services.